• Join FlightAware (Why Join?)
  • Login
  • US Flag 
01:19PM EDT


 

Airport Tracker/Info


-or-


 

Live Flight TrackerFlight Track Log ✈ FIN666 ✈ 12-Apr-2014 ✈ EKCH / CPH - EFHK / HEL

Flight Track Log - Related Links

Times and Time Zones

All times are in EDT time to prevent confusion due to time zone crossing. See the FIN666 flight status page for this flight to view local times or setup timezone preferences in your user account.

Time Position Orientation Groundspeed Altitude Reporting Facility
EDT Latitude Longitude Course Direction KTS MPH feet Rate Location/Type
07:34AM 55.8272 13.0881 49° Northeast  Level Estimated
07:35AM 55.8966 13.2332 49° Northeast  Level Estimated
07:36AM 55.9658 13.3788 50° Northeast  Level Estimated
07:37AM 56.0358 13.5269 50° Northeast  Level Estimated
07:38AM 56.1056 13.6755 50° Northeast  Level Estimated
07:39AM 56.1753 13.8247 50° Northeast  Level Estimated
07:40AM 56.2447 13.9744 50° Northeast  Level Estimated
07:41AM 56.3140 14.1247 50° Northeast  Level Estimated
07:42AM 56.3831 14.2755 50° Northeast  Level Estimated
07:43AM 56.4520 14.4269 50° Northeast  Level Estimated
07:44AM 56.5207 14.5787 51° Northeast  Level Estimated
07:45AM 56.5893 14.7312 51° Northeast  Level Estimated
07:46AM 56.6576 14.8842 51° Northeast  Level Estimated
07:47AM 56.7258 15.0378 51° Northeast  Level Estimated
07:48AM 56.7938 15.1919 51° Northeast  Level Estimated
07:49AM 56.8615 15.3466 51° Northeast  Level Estimated
07:50AM 56.9291 15.5018 51° Northeast  Level Estimated
07:51AM 56.9965 15.6576 52° Northeast  Level Estimated
07:52AM 57.0637 15.8140 52° Northeast  Level Estimated
07:53AM 57.1307 15.9709 52° Northeast  Level Estimated
07:54AM 57.1976 16.1284 52° Northeast  Level Estimated
07:55AM 57.2642 16.2865 52° Northeast  Level Estimated
07:56AM 57.3334 16.4518 52° Northeast  Level Estimated
07:57AM 57.4024 16.6178 52° Northeast  Level Estimated
07:58AM 57.4712 16.7844 52° Northeast  Level Estimated
07:59AM 57.5397 16.9517 53° Northeast  Level Estimated
08:00AM 57.6081 17.1195 53° Northeast  Level Estimated
08:01AM 57.6762 17.2880 53° Northeast  Level Estimated
08:02AM 57.7441 17.4572 53° Northeast  Level Estimated
08:03AM 57.8117 17.6269 53° Northeast  Level Estimated
08:04AM 57.8792 17.7973 53° Northeast  Level Estimated
08:05AM 57.9464 17.9684 53° Northeast  Level Estimated
08:06AM 58.0134 18.1401 54° Northeast  Level Estimated
08:07AM 58.0801 18.3124 54° Northeast  Level Estimated
08:08AM 58.1466 18.4853 54° Northeast  Level Estimated
08:09AM 58.2129 18.6590 54° Northeast  Level Estimated
08:10AM 58.2789 18.8332 54° Northeast  Level Estimated
08:11AM 58.3447 19.0081 54° Northeast  Level Estimated
08:12AM 58.4103 19.1837 54° Northeast  Level Estimated
08:13AM 58.4756 19.3599 55° Northeast  Level Estimated
08:14AM 58.5407 19.5368 55° Northeast  Level Estimated
08:15AM 58.6055 19.7143 55° Northeast  Level Estimated
08:16AM 58.6702 19.8925 55° Northeast  Level Estimated
08:17AM 58.7345 20.0714 55° Northeast  Level Estimated
08:18AM 58.7986 20.2509 55° Northeast  Level Estimated
08:19AM 58.8624 20.4310 56° Northeast  Level Estimated
08:20AM 58.9260 20.6119 56° Northeast  Level Estimated
08:21AM 58.9894 20.7934 56° Northeast  Level Estimated
08:22AM 59.0524 20.9756 56° Northeast  Level Estimated
08:23AM 59.1153 21.1584 56° Northeast  Level Estimated
08:24AM 59.1778 21.3419 56° Northeast  Level Estimated
08:25AM 59.2402 21.5261 56° Northeast  Level Estimated
08:26AM 59.3022 21.7109 57° Northeast  Level Estimated
08:27AM 59.3640 21.8965 57° Northeast  Level Estimated
08:28AM 59.4255 22.0827 57° Northeast  Level Estimated
08:29AM 59.4868 22.2696 57° Northeast  Level Estimated
08:30AM 59.5478 22.4571 57° Northeast  Level Estimated
08:31AM 59.6085 22.6454 57° Northeast  Level Estimated
08:32AM 59.6689 22.8343 58° Northeast  Level Estimated
08:33AM 59.7291 23.0239 58° Northeast  Level Estimated
08:34AM 59.7890 23.2142 58° Northeast  Level Estimated
08:35AM 59.8486 23.4051 58° Northeast  Level Estimated
08:36AM 59.9080 23.5968 58° Northeast  Level Estimated
08:37AM 59.9671 23.7891 58° Northeast  Level Estimated
08:38AM 60.0258 23.9821 59° Northeast  Level Estimated
08:39AM 60.0844 24.1758 59° Northeast  Level Estimated
08:40AM 60.1426 24.3702 59° Northeast  Level Estimated
08:41AM 60.2005 24.5653 59° Northeast  Level Estimated
08:42AM 60.2582 24.7611 59° Northeast  Level Estimated
08:43AM 60.3155 24.9575 59° Northeast  Level Estimated
08:44AM 60.3172 24.9633 60° Northeast  Level Estimated
08:45AM 60.3172 24.9633 North  Level Estimated
08:46AM 60.3172 24.9633 North  Level Estimated
08:47AM 60.3172 24.9633 North  Level Estimated
08:48AM 60.3172 24.9633 North  Level Estimated
08:49AM 60.3172 24.9633 North  Level Estimated
08:50AM 60.3172 24.9633 North  Level Estimated
08:51AM 60.3172 24.9633 North  Level Estimated
08:52AM 60.3172 24.9633 North  Level Estimated
08:53AM 60.3172 24.9633 North  Level Estimated
08:54AM 60.3172 24.9633 North  Level Estimated
08:55AM 60.3172 24.9633 North  Level Estimated
08:56AM 60.3172 24.9633 North  Level Estimated
08:57AM 60.3172 24.9633 North  Level Estimated
08:58AM 60.3172 24.9633 North  Level Estimated
08:59AM 60.3172 24.9633 North  Level Estimated